x

Frying Pan Shoals, Nc Buoy (41013) Wave Buoy

9:50 - Mon 2nd Mar 2015 All times are EST. -5 hours from GMT.

  • Sig Wave height 3.3ft
  • Swell Direction
  • Peak Period 8s
  • Average Period 4s
  • Wind
    18mph, 22mph gusts
  • Sea Temp 62°f
  • Air Temp 57°f
  • Sea Pressure 1026.5mb
  • Frying Pan Shoals, Nc Buoy
  • Frying Pan Shoals, Nc Buoy

More Historic Weather Station data

Upgrade to MSW Pro to gain access to the past 30 days of data for over 8000 Wavebouys and Weather Stations around the globe.

Join Pro

Comparision Forecast

View Surf forecast
   
lun. 03/02 9:50 3.5ft 8s 4s 18 22 mph 1026.5mb 62f 57f
8:50 3ft 8s 5s 20 25 mph 1025.8mb 62f 58f
7:50 2.5ft 9s 5s 16 20 mph 1025.3mb 62f 58f
6:50 2.5ft 9s 5s 13 16 mph 1024.9mb 62f 58f
5:50 3ft 8s 5s 13 16 mph 1024mb 62f 56f
4:50 3.5ft 9s 5s 13 16 mph 1024.1mb 62f 55f
3:50 3.5ft 9s 5s 9 11 mph 1023.5mb 62f 55f
2:50 3.5ft 8s 5s 9 11 mph 1023.4mb 62f 54f
1:50 4ft 7s 5s 11 16 mph 1023.7mb 62f 53f
12:50 4.5ft 9s 5s 16 20 mph 1024.4mb 61f 57f
11:50 4.5ft 9s 5s 18 20 mph 1024.6mb 61f 56f
10:50 4.5ft 8s 5s 18 22 mph 1024.9mb 61f 55f
9:50 4.5ft 8s 5s 16 18 mph 1025.1mb 61f 57f
8:50 4ft 8s 5s 16 18 mph 1024.9mb 62f 57f
7:50 4ft 8s 5s 18 20 mph 1024.8mb 62f 57f
6:50 4.5ft 8s 6s 13 16 mph 1024.5mb 62f 57f
5:50 4.5ft 8s 6s 18 20 mph 1024.3mb 62f 58f
4:50 4.5ft 8s 6s 13
mph
1023.8mb 62f 59f
3:50 4.5ft 7s 6s 7 9 mph 1024.8mb 62f 55f
2:50 4.5ft 8s 6s 7 9 mph 1025.9mb 62f 53f
1:50 5ft 8s 6s 4 7 mph 1026.4mb 62f 53f
12:50 5ft 7s 6s 7 9 mph 1027mb 62f 53f
dim. 03/01 11:50 5ft 8s 6s 4 7 mph 1027.8mb 62f 53f
10:50 5ft 7s 5s 4 7 mph 1028mb 62f 53f
9:50 5ft 8s 6s 13 16 mph 1028.4mb 62f 52f
8:50 6ft 6s 6s 11 13 mph 1028.4mb 62f 54f
7:50 6.5ft 7s 6s 11 16 mph 1028.3mb 62f 57f
6:50 6ft 6s 5s 13 16 mph 1027.4mb 62f 66f
5:50 6ft 8s 6s 16 18 mph 1027.5mb 62f 66f
4:50 6.5ft 8s 6s 13 16 mph 1027.9mb 62f 66f
3:50 6ft 6s 5s 13 18 mph 1028.1mb 62f 66f
2:50 6ft 6s 5s 18 20 mph 1028.6mb 61f 66f
1:50 6.5ft 6s 5s 18 20 mph 1028.9mb 61f 66f
12:50 6ft 6s 5s 13 18 mph 1030.5mb 61f 65f
11:50 6.5ft 7s 5s 16 20 mph 1031.2mb 61f 65f
10:50 6ft 6s 5s 22 25 mph 1030.9mb 61f 65f
9:50 6.5ft 6s 5s 16 18 mph 1032.2mb 60f 64f
8:50 6.5ft 7s 5s 13 18 mph 1032.8mb 61f 64f
7:50 6.5ft 6s 5s 13 16 mph 1032.8mb 61f 64f
6:50 6ft 7s 5s 16 18 mph 1032.5mb 61f 63f
5:50 7ft 7s 5s 16 20 mph 1032.3mb 61f 63f
4:50 7ft 7s 5s 16 18 mph 1032.4mb 61f 63f
3:50 7.5ft 7s 5s 20 25 mph 1032.4mb 61f 55f
2:50 8ft 7s 6s 25 29 mph 1033.1mb 61f 52f
1:50 7.5ft 6s 5s 25 31 mph 1033.9mb 61f 52f
12:50 8ft 8s 6s 25 31 mph 1034.4mb 61f 52f
sam. 02/28 11:50 9ft 7s 6s 25 31 mph 1034.9mb 62f 51f
10:50 9ft 7s 6s 27 34 mph 1035.5mb 62f 50f
9:50 8.5ft 8s 6s 29 34 mph 1036.2mb 62f 49f
8:50 9ft 6s 6s 29 36 mph 1036.6mb 62f 49f
7:50 9ft 7s 6s 29 36 mph 1036.2mb 62f 49f
6:50 10ft 8s 6s 29 36 mph 1035.7mb 62f 48f
5:50 9.5ft 7s 6s 29 36 mph 1035.5mb 62f 48f
4:50 10ft 8s 6s 31 40 mph 1035.1mb 62f 49f
3:50 9ft 6s 6s 29 36 mph 1035.3mb 62f 48f
2:50 9ft 8s 6s 29 36 mph 1035.5mb 62f 47f
1:50 9.5ft 7s 6s 31 40 mph 1035.2mb 62f 47f
12:50 8.5ft 8s 6s 29 34 mph 1036.7mb 62f 47f
11:50 9ft 8s 6s 27 34 mph 1037.3mb 62f 46f
10:50 9ft 7s 5s 29 36 mph 1037.3mb 61f 46f
9:50 9ft 7s 6s 29 36 mph 1036.8mb 61f 47f
8:50 9ft 7s 6s 31 38 mph 1036mb 62f 47f
7:50 8.5ft 7s 5s 29 36 mph 1035.3mb 63f 47f
6:50 7.5ft 7s 5s 29 36 mph 1034.4mb 63f 47f
5:50 8ft 7s 5s 29 36 mph 1033.4mb 63f 47f
4:50 6ft 6s 5s 27 31 mph 1033.2mb 63f 47f
3:50 5.5ft 6s 5s 25 29 mph 1032.8mb 63f 48f
2:50 5ft 6s 5s 22 27 mph 1033.1mb 62f 49f
1:50 5.5ft 6s 5s 22 27 mph 1032.8mb 62f 49f
12:50 5ft 5s 5s 22 27 mph 1032.4mb 62f 50f
ven. 02/27 11:50 5ft 5s 5s 20 25 mph 1032.2mb 62f 50f
10:50 4.5ft 8s 5s 20 25 mph 1032.2mb 62f 50f
9:50 4.5ft 8s 5s 20 25 mph 1031.5mb 62f 50f
8:50 4.5ft 6s 5s 20 25 mph 1030.9mb 62f 50f
7:50 4.5ft 10s 5s 20 25 mph 1030.1mb 62f 49f
6:50 4.5ft 9s 5s 18 22 mph 1029.6mb 62f 49f
5:50 4.5ft 11s 5s 18 22 mph 1028.9mb 62f 48f
4:50 4.5ft 5s 5s 16 20 mph 1028.5mb 62f 47f
3:50 4.5ft 8s 5s 16 20 mph 1028.8mb 62f 46f
2:50 5ft 9s 5s 16 22 mph 1028.4mb 62f 46f
1:50 4.5ft 5s 5s 18 22 mph 1028.1mb 61f 45f
12:50 5ft 5s 5s 18 22 mph 1028.5mb 61f 45f
11:50 5ft 8s 5s 18 25 mph 1028.6mb 61f 46f
10:50 5ft 9s 5s 16 22 mph 1027.6mb 60f 44f
9:50 5ft 9s 6s 18 22 mph 1027.2mb 60f 44f
8:50 5ft 8s 6s 18 22 mph 1027mb 60f 44f
7:50 5ft 10s 6s 16 20 mph 1025.8mb 60f 44f
6:50 5ft 9s 6s 18 20 mph 1024.9mb 60f 43f
5:50 5.5ft 9s 6s 16 20 mph 1024.4mb 60f 43f
4:50 5ft 9s 5s 16 18 mph 1023.4mb 60f 42f